»·PEaware :: N516DM KEUG-KPDX

N516DM :: KEUG-KPDX

FLIGHT INFORMATION

Flight Status: Arrived
Operator: Privately registered:
United States
More flights under this callsign
Pilot: Thomas H. (5912)
Aircraft: BEECH AIRCRAFT DEBONAIR BONANZA
(BE33)
More flights by this aircraft type
Origin: KEUG Mahlon Sweet
United States
Destination: KPDX Portland Intl
United States
More flights between these airports :: More routes between these airports
Route: +EUG9 CVO V495 UBG
File this flight plan on PilotEdge
Remarks:
Altitude:
(Current/Filed)
6,000ft
Speed:
(Current/Filed)
160kts
Departed: 27-Aug-18 10:08 AM
Arrived: 27-Aug-18 10:58 AM
Distance/Time
Traveled:
92nm/0:49
Distance/Time
To Go:
Arrived

Flight Plot

Page will automatically refresh every two minutes.

Flight plan parsing failed; only flown route is shown


Map Options




Map Legend


Flown Route
Filed Route
Departure Airport
Arrival Airport
Navaid (VOR, NDB)
Fix

Horizontal Profiles

Position Reports

Time Latitude Longitude Heading Altitude Ground
Speed
27-Aug-18 10:00 44.117929 -123.215186 42 368ft 0kts
27-Aug-18 10:01 44.117929 -123.215186 42 368ft 0kts
27-Aug-18 10:02 44.117929 -123.215186 42 368ft 0kts
27-Aug-18 10:03 44.117929 -123.215186 42 368ft 0kts
27-Aug-18 10:04 44.117929 -123.215186 42 368ft 0kts
27-Aug-18 10:05 44.118673 -123.215797 189 365ft 3kts
27-Aug-18 10:06 44.114421 -123.216941 236 367ft 9kts
27-Aug-18 10:07 44.114078 -123.217664 227 365ft 0kts
27-Aug-18 10:08 44.114138 -123.218794 336 364ft 16kts
27-Aug-18 10:09 44.128601 -123.219732 358 779ft 81kts
27-Aug-18 10:10 44.152883 -123.222038 359 1517ft 91kts
27-Aug-18 10:11 44.178477 -123.225597 356 2144ft 100kts
27-Aug-18 10:12 44.207855 -123.228796 359 2871ft 109kts
27-Aug-18 10:13 44.237694 -123.231111 358 3671ft 106kts
27-Aug-18 10:14 44.266495 -123.233307 358 4469ft 101kts
27-Aug-18 10:15 44.294058 -123.235278 358 5223ft 99kts
27-Aug-18 10:16 44.321539 -123.237002 358 5927ft 98kts
27-Aug-18 10:17 44.352764 -123.248909 342 6022ft 133kts
27-Aug-18 10:18 44.390354 -123.263258 348 6022ft 145kts
27-Aug-18 10:19 44.430427 -123.274373 349 6024ft 148kts
27-Aug-18 10:20 44.471128 -123.285020 349 6026ft 149kts
27-Aug-18 10:21 44.511976 -123.286141 12 6027ft 150kts
27-Aug-18 10:22 44.552776 -123.274181 13 6028ft 150kts
27-Aug-18 10:23 44.593580 -123.261404 15 5997ft 152kts
27-Aug-18 10:24 44.634520 -123.247596 15 5991ft 150kts
27-Aug-18 10:25 44.675047 -123.233508 16 5990ft 150kts
27-Aug-18 10:26 44.715385 -123.218629 16 5991ft 150kts
27-Aug-18 10:27 44.755545 -123.203802 16 5990ft 149kts
27-Aug-18 10:28 44.795406 -123.189069 16 5990ft 148kts
27-Aug-18 10:29 44.835008 -123.174315 16 5990ft 147kts
27-Aug-18 10:30 44.874431 -123.159418 16 5990ft 146kts
27-Aug-18 10:31 44.913718 -123.144493 16 5990ft 146kts
27-Aug-18 10:32 44.952814 -123.129713 16 5989ft 146kts
27-Aug-18 10:33 44.991977 -123.114934 16 5989ft 145kts
27-Aug-18 10:34 45.031053 -123.100213 14 5989ft 145kts
27-Aug-18 10:35 45.069845 -123.085576 14 5988ft 144kts
27-Aug-18 10:36 45.108459 -123.071037 12 5992ft 144kts
27-Aug-18 10:37 45.147389 -123.056406 12 5992ft 145kts
27-Aug-18 10:38 45.174034 -123.017935 73 5992ft 157kts
27-Aug-18 10:39 45.181338 -122.956875 74 5992ft 157kts
27-Aug-18 10:40 45.188423 -122.895797 74 5992ft 156kts
27-Aug-18 10:41 45.195409 -122.834915 74 5992ft 156kts
27-Aug-18 10:42 45.207537 -122.776755 53 5758ft 162kts
27-Aug-18 10:43 45.234142 -122.723105 50 4977ft 169kts
27-Aug-18 10:44 45.261418 -122.668553 50 4272ft 167kts
27-Aug-18 10:45 45.287349 -122.616666 50 3996ft 152kts
27-Aug-18 10:46 45.310768 -122.568528 50 4000ft 146kts
27-Aug-18 10:47 45.334433 -122.520800 50 4001ft 148kts
27-Aug-18 10:48 45.358923 -122.473062 50 4001ft 150kts
27-Aug-18 10:49 45.384052 -122.425118 47 4000ft 151kts
27-Aug-18 10:50 45.419441 -122.388847 30 3488ft 161kts
27-Aug-18 10:51 45.457095 -122.353617 30 3002ft 157kts
27-Aug-18 10:52 45.490298 -122.363488 315 2997ft 126kts
27-Aug-18 10:53 45.509703 -122.402882 297 2862ft 128kts
27-Aug-18 10:54 45.525929 -122.444080 297 2283ft 116kts
27-Aug-18 10:55 45.541396 -122.483599 298 1626ft 113kts
27-Aug-18 10:56 45.556518 -122.522313 298 1012ft 109kts
27-Aug-18 10:57 45.569322 -122.555267 298 519ft 85kts
27-Aug-18 10:58 45.579988 -122.582582 299 57ft 66kts
27-Aug-18 10:59 45.583277 -122.592567 209 17ft 0kts

Navigation Log

Ident Type
Flight plan parsing failed, navigation log unavailable